sensor_id;sensor_type;location;lat;lon;timestamp;P1;durP1;ratioP1;P2;durP2;ratioP2
72319;SDS011;60269;52.502;16.732;2023-08-20T00:01:50;27.50;;;16.48;;
72319;SDS011;60269;52.502;16.732;2023-08-20T00:05:29;28.33;;;15.80;;
72319;SDS011;60269;52.502;16.732;2023-08-20T00:09:02;27.70;;;17.27;;
72319;SDS011;60269;52.502;16.732;2023-08-20T00:12:35;25.30;;;14.77;;
72319;SDS011;60269;52.502;16.732;2023-08-20T00:16:07;30.20;;;16.48;;
72319;SDS011;60269;52.502;16.732;2023-08-20T00:19:41;25.93;;;15.47;;
72319;SDS011;60269;52.502;16.732;2023-08-20T00:23:13;31.23;;;17.53;;
72319;SDS011;60269;52.502;16.732;2023-08-20T00:26:45;34.42;;;19.52;;
72319;SDS011;60269;52.502;16.732;2023-08-20T00:30:17;31.23;;;18.63;;
72319;SDS011;60269;52.502;16.732;2023-08-20T00:33:50;32.53;;;19.47;;
72319;SDS011;60269;52.502;16.732;2023-08-20T00:37:37;32.13;;;19.50;;
72319;SDS011;60269;52.502;16.732;2023-08-20T00:41:09;32.05;;;18.90;;
72319;SDS011;60269;52.502;16.732;2023-08-20T00:44:41;34.33;;;17.90;;
72319;SDS011;60269;52.502;16.732;2023-08-20T00:48:16;33.50;;;19.43;;
72319;SDS011;60269;52.502;16.732;2023-08-20T00:51:49;32.23;;;18.77;;
72319;SDS011;60269;52.502;16.732;2023-08-20T00:55:22;27.58;;;16.45;;
72319;SDS011;60269;52.502;16.732;2023-08-20T00:58:54;32.00;;;18.25;;
72319;SDS011;60269;52.502;16.732;2023-08-20T01:02:27;29.00;;;16.40;;
72319;SDS011;60269;52.502;16.732;2023-08-20T01:06:17;27.90;;;17.67;;
72319;SDS011;60269;52.502;16.732;2023-08-20T01:09:52;31.17;;;16.23;;
72319;SDS011;60269;52.502;16.732;2023-08-20T01:13:44;28.02;;;14.50;;
72319;SDS011;60269;52.502;16.732;2023-08-20T01:17:17;28.97;;;17.47;;
72319;SDS011;60269;52.502;16.732;2023-08-20T01:20:55;27.37;;;16.47;;
72319;SDS011;60269;52.502;16.732;2023-08-20T01:28:27;25.23;;;15.90;;
72319;SDS011;60269;52.502;16.732;2023-08-20T01:32:00;26.30;;;14.93;;
72319;SDS011;60269;52.502;16.732;2023-08-20T01:35:35;29.77;;;17.63;;
72319;SDS011;60269;52.502;16.732;2023-08-20T01:39:08;28.70;;;15.80;;
72319;SDS011;60269;52.502;16.732;2023-08-20T01:42:40;29.15;;;17.08;;
72319;SDS011;60269;52.502;16.732;2023-08-20T01:46:12;29.53;;;17.13;;
72319;SDS011;60269;52.502;16.732;2023-08-20T01:49:44;32.83;;;19.27;;
72319;SDS011;60269;52.502;16.732;2023-08-20T01:53:17;34.85;;;19.67;;
72319;SDS011;60269;52.502;16.732;2023-08-20T01:56:49;29.77;;;17.75;;
72319;SDS011;60269;52.502;16.732;2023-08-20T02:00:21;30.43;;;18.93;;
72319;SDS011;60269;52.502;16.732;2023-08-20T02:03:53;30.43;;;18.80;;
72319;SDS011;60269;52.502;16.732;2023-08-20T02:07:25;29.35;;;17.83;;
72319;SDS011;60269;52.502;16.732;2023-08-20T02:11:03;35.55;;;18.73;;
72319;SDS011;60269;52.502;16.732;2023-08-20T02:14:36;31.03;;;19.23;;
72319;SDS011;60269;52.502;16.732;2023-08-20T02:18:08;37.80;;;21.23;;
72319;SDS011;60269;52.502;16.732;2023-08-20T02:21:40;32.65;;;19.08;;
72319;SDS011;60269;52.502;16.732;2023-08-20T02:25:12;27.15;;;16.15;;
72319;SDS011;60269;52.502;16.732;2023-08-20T02:28:45;26.23;;;16.77;;
72319;SDS011;60269;52.502;16.732;2023-08-20T02:32:16;27.43;;;16.37;;
72319;SDS011;60269;52.502;16.732;2023-08-20T02:35:49;31.77;;;17.92;;
72319;SDS011;60269;52.502;16.732;2023-08-20T02:39:21;31.90;;;18.45;;
72319;SDS011;60269;52.502;16.732;2023-08-20T02:42:53;26.88;;;16.05;;
72319;SDS011;60269;52.502;16.732;2023-08-20T02:46:24;29.77;;;17.07;;
72319;SDS011;60269;52.502;16.732;2023-08-20T02:49:57;25.25;;;15.65;;
72319;SDS011;60269;52.502;16.732;2023-08-20T02:53:29;27.40;;;16.52;;
72319;SDS011;60269;52.502;16.732;2023-08-20T02:57:02;29.15;;;17.80;;
72319;SDS011;60269;52.502;16.732;2023-08-20T03:00:34;25.03;;;15.17;;
72319;SDS011;60269;52.502;16.732;2023-08-20T03:04:06;27.33;;;16.25;;
72319;SDS011;60269;52.502;16.732;2023-08-20T03:07:38;26.75;;;16.30;;
72319;SDS011;60269;52.502;16.732;2023-08-20T03:11:11;26.43;;;15.80;;
72319;SDS011;60269;52.502;16.732;2023-08-20T03:14:44;30.93;;;17.50;;
72319;SDS011;60269;52.502;16.732;2023-08-20T03:18:17;29.95;;;17.80;;
72319;SDS011;60269;52.502;16.732;2023-08-20T03:21:51;28.63;;;17.15;;
72319;SDS011;60269;52.502;16.732;2023-08-20T03:25:23;29.87;;;17.53;;
72319;SDS011;60269;52.502;16.732;2023-08-20T03:28:55;32.27;;;17.87;;
72319;SDS011;60269;52.502;16.732;2023-08-20T03:32:27;32.22;;;18.73;;
72319;SDS011;60269;52.502;16.732;2023-08-20T03:35:59;31.95;;;18.35;;
72319;SDS011;60269;52.502;16.732;2023-08-20T03:39:32;33.47;;;19.65;;
72319;SDS011;60269;52.502;16.732;2023-08-20T03:43:04;33.10;;;19.37;;
72319;SDS011;60269;52.502;16.732;2023-08-20T03:46:36;31.38;;;19.25;;
72319;SDS011;60269;52.502;16.732;2023-08-20T03:50:08;36.28;;;20.98;;
72319;SDS011;60269;52.502;16.732;2023-08-20T03:53:40;38.40;;;19.80;;
72319;SDS011;60269;52.502;16.732;2023-08-20T03:57:12;34.30;;;20.43;;
72319;SDS011;60269;52.502;16.732;2023-08-20T04:00:44;35.90;;;20.65;;
72319;SDS011;60269;52.502;16.732;2023-08-20T04:04:16;35.35;;;20.52;;
72319;SDS011;60269;52.502;16.732;2023-08-20T04:07:48;34.60;;;20.27;;
72319;SDS011;60269;52.502;16.732;2023-08-20T04:11:20;34.07;;;20.50;;
72319;SDS011;60269;52.502;16.732;2023-08-20T04:14:52;34.55;;;20.35;;
72319;SDS011;60269;52.502;16.732;2023-08-20T04:18:24;36.65;;;20.40;;
72319;SDS011;60269;52.502;16.732;2023-08-20T04:21:58;33.30;;;19.83;;
72319;SDS011;60269;52.502;16.732;2023-08-20T04:25:30;38.23;;;20.67;;
72319;SDS011;60269;52.502;16.732;2023-08-20T04:29:02;35.10;;;20.00;;
72319;SDS011;60269;52.502;16.732;2023-08-20T04:32:35;34.38;;;19.55;;
72319;SDS011;60269;52.502;16.732;2023-08-20T04:36:07;30.73;;;18.63;;
72319;SDS011;60269;52.502;16.732;2023-08-20T04:39:39;32.87;;;19.07;;
72319;SDS011;60269;52.502;16.732;2023-08-20T04:43:11;31.10;;;18.63;;
72319;SDS011;60269;52.502;16.732;2023-08-20T04:46:43;28.67;;;17.65;;
72319;SDS011;60269;52.502;16.732;2023-08-20T04:50:16;27.07;;;18.50;;
72319;SDS011;60269;52.502;16.732;2023-08-20T04:53:51;28.83;;;17.90;;
72319;SDS011;60269;52.502;16.732;2023-08-20T04:57:23;26.70;;;17.52;;
72319;SDS011;60269;52.502;16.732;2023-08-20T05:00:55;26.17;;;16.67;;
72319;SDS011;60269;52.502;16.732;2023-08-20T05:04:27;26.07;;;16.60;;
72319;SDS011;60269;52.502;16.732;2023-08-20T05:08:00;26.07;;;17.43;;
72319;SDS011;60269;52.502;16.732;2023-08-20T05:11:32;26.50;;;17.95;;
72319;SDS011;60269;52.502;16.732;2023-08-20T05:15:05;24.52;;;17.65;;
72319;SDS011;60269;52.502;16.732;2023-08-20T05:18:37;25.57;;;17.10;;
72319;SDS011;60269;52.502;16.732;2023-08-20T05:22:09;23.87;;;15.70;;
72319;SDS011;60269;52.502;16.732;2023-08-20T05:25:43;22.83;;;15.00;;
72319;SDS011;60269;52.502;16.732;2023-08-20T05:29:16;22.42;;;13.38;;
72319;SDS011;60269;52.502;16.732;2023-08-20T05:32:48;24.73;;;13.90;;
72319;SDS011;60269;52.502;16.732;2023-08-20T05:36:20;18.20;;;13.00;;
72319;SDS011;60269;52.502;16.732;2023-08-20T05:39:53;19.05;;;12.73;;
72319;SDS011;60269;52.502;16.732;2023-08-20T05:43:25;18.75;;;12.55;;
72319;SDS011;60269;52.502;16.732;2023-08-20T05:46:57;22.40;;;13.40;;
72319;SDS011;60269;52.502;16.732;2023-08-20T05:50:30;18.83;;;12.73;;
72319;SDS011;60269;52.502;16.732;2023-08-20T05:54:03;17.38;;;12.73;;
72319;SDS011;60269;52.502;16.732;2023-08-20T05:57:35;19.70;;;12.60;;
72319;SDS011;60269;52.502;16.732;2023-08-20T06:01:08;16.87;;;12.73;;
72319;SDS011;60269;52.502;16.732;2023-08-20T06:04:40;19.03;;;13.00;;
72319;SDS011;60269;52.502;16.732;2023-08-20T06:08:13;17.63;;;12.63;;
72319;SDS011;60269;52.502;16.732;2023-08-20T06:11:44;21.30;;;13.68;;
72319;SDS011;60269;52.502;16.732;2023-08-20T06:15:17;18.67;;;12.77;;
72319;SDS011;60269;52.502;16.732;2023-08-20T06:18:49;18.53;;;12.73;;
72319;SDS011;60269;52.502;16.732;2023-08-20T06:22:22;18.92;;;15.32;;
72319;SDS011;60269;52.502;16.732;2023-08-20T06:25:53;17.85;;;14.00;;
72319;SDS011;60269;52.502;16.732;2023-08-20T06:29:26;15.30;;;12.40;;
72319;SDS011;60269;52.502;16.732;2023-08-20T06:32:58;17.80;;;14.63;;
72319;SDS011;60269;52.502;16.732;2023-08-20T06:36:30;17.75;;;13.57;;
72319;SDS011;60269;52.502;16.732;2023-08-20T06:40:02;15.95;;;14.07;;
72319;SDS011;60269;52.502;16.732;2023-08-20T06:43:35;17.00;;;14.50;;
72319;SDS011;60269;52.502;16.732;2023-08-20T06:47:07;17.20;;;14.47;;
72319;SDS011;60269;52.502;16.732;2023-08-20T06:50:41;16.83;;;13.48;;
72319;SDS011;60269;52.502;16.732;2023-08-20T06:54:14;18.60;;;14.05;;
72319;SDS011;60269;52.502;16.732;2023-08-20T06:57:46;17.60;;;15.73;;
72319;SDS011;60269;52.502;16.732;2023-08-20T07:01:19;16.07;;;14.37;;
72319;SDS011;60269;52.502;16.732;2023-08-20T07:04:52;21.83;;;14.68;;
72319;SDS011;60269;52.502;16.732;2023-08-20T07:08:23;19.27;;;14.68;;
72319;SDS011;60269;52.502;16.732;2023-08-20T07:11:56;17.23;;;15.43;;
72319;SDS011;60269;52.502;16.732;2023-08-20T07:15:29;18.07;;;13.93;;
72319;SDS011;60269;52.502;16.732;2023-08-20T07:19:01;18.98;;;16.58;;
72319;SDS011;60269;52.502;16.732;2023-08-20T07:22:33;19.23;;;14.95;;
72319;SDS011;60269;52.502;16.732;2023-08-20T07:26:06;15.27;;;12.07;;
72319;SDS011;60269;52.502;16.732;2023-08-20T07:29:40;15.80;;;12.00;;
72319;SDS011;60269;52.502;16.732;2023-08-20T07:33:13;16.20;;;11.50;;
72319;SDS011;60269;52.502;16.732;2023-08-20T07:36:45;16.30;;;11.95;;
72319;SDS011;60269;52.502;16.732;2023-08-20T07:40:20;15.57;;;12.40;;
72319;SDS011;60269;52.502;16.732;2023-08-20T07:43:52;15.50;;;12.93;;
72319;SDS011;60269;52.502;16.732;2023-08-20T07:47:24;14.60;;;12.50;;
72319;SDS011;60269;52.502;16.732;2023-08-20T07:50:56;15.38;;;13.20;;
72319;SDS011;60269;52.502;16.732;2023-08-20T07:54:29;15.67;;;13.07;;
72319;SDS011;60269;52.502;16.732;2023-08-20T07:58:01;16.20;;;12.80;;
72319;SDS011;60269;52.502;16.732;2023-08-20T08:01:33;14.65;;;10.68;;
72319;SDS011;60269;52.502;16.732;2023-08-20T08:05:05;15.60;;;10.73;;
72319;SDS011;60269;52.502;16.732;2023-08-20T08:08:41;14.50;;;11.20;;
72319;SDS011;60269;52.502;16.732;2023-08-20T08:12:14;13.63;;;10.90;;
72319;SDS011;60269;52.502;16.732;2023-08-20T08:15:47;16.80;;;10.98;;
72319;SDS011;60269;52.502;16.732;2023-08-20T08:19:19;14.57;;;12.65;;
72319;SDS011;60269;52.502;16.732;2023-08-20T08:22:52;17.93;;;15.83;;
72319;SDS011;60269;52.502;16.732;2023-08-20T08:26:24;15.68;;;13.98;;
72319;SDS011;60269;52.502;16.732;2023-08-20T08:29:56;17.25;;;15.43;;
72319;SDS011;60269;52.502;16.732;2023-08-20T08:33:28;14.50;;;11.05;;
72319;SDS011;60269;52.502;16.732;2023-08-20T08:37:02;14.13;;;10.80;;
72319;SDS011;60269;52.502;16.732;2023-08-20T08:40:34;14.02;;;10.63;;
72319;SDS011;60269;52.502;16.732;2023-08-20T08:44:07;13.23;;;10.13;;
72319;SDS011;60269;52.502;16.732;2023-08-20T08:47:40;17.40;;;15.70;;
72319;SDS011;60269;52.502;16.732;2023-08-20T08:51:14;15.47;;;13.87;;
72319;SDS011;60269;52.502;16.732;2023-08-20T08:54:46;17.40;;;15.68;;
72319;SDS011;60269;52.502;16.732;2023-08-20T08:58:19;14.98;;;13.50;;
72319;SDS011;60269;52.502;16.732;2023-08-20T09:01:51;16.23;;;14.43;;
72319;SDS011;60269;52.502;16.732;2023-08-20T09:05:23;16.05;;;14.35;;
72319;SDS011;60269;52.502;16.732;2023-08-20T09:09:03;16.00;;;14.50;;
72319;SDS011;60269;52.502;16.732;2023-08-20T09:12:36;14.77;;;13.23;;
72319;SDS011;60269;52.502;16.732;2023-08-20T09:16:09;15.95;;;14.02;;
72319;SDS011;60269;52.502;16.732;2023-08-20T09:19:43;13.57;;;11.50;;
72319;SDS011;60269;52.502;16.732;2023-08-20T09:23:16;12.70;;;11.40;;
72319;SDS011;60269;52.502;16.732;2023-08-20T09:26:48;15.90;;;14.50;;
72319;SDS011;60269;52.502;16.732;2023-08-20T09:30:20;16.48;;;14.63;;
72319;SDS011;60269;52.502;16.732;2023-08-20T09:33:53;15.25;;;13.85;;
72319;SDS011;60269;52.502;16.732;2023-08-20T09:37:26;16.03;;;14.53;;
72319;SDS011;60269;52.502;16.732;2023-08-20T09:41:00;16.85;;;15.02;;
72319;SDS011;60269;52.502;16.732;2023-08-20T09:44:33;17.17;;;15.57;;
72319;SDS011;60269;52.502;16.732;2023-08-20T09:48:07;11.43;;;9.27;;
72319;SDS011;60269;52.502;16.732;2023-08-20T09:51:41;13.65;;;9.48;;
72319;SDS011;60269;52.502;16.732;2023-08-20T09:55:16;11.43;;;8.93;;
72319;SDS011;60269;52.502;16.732;2023-08-20T09:58:51;15.68;;;14.18;;
72319;SDS011;60269;52.502;16.732;2023-08-20T10:02:26;11.60;;;9.97;;
72319;SDS011;60269;52.502;16.732;2023-08-20T10:05:58;11.07;;;9.25;;
72319;SDS011;60269;52.502;16.732;2023-08-20T10:09:32;11.05;;;9.05;;
72319;SDS011;60269;52.502;16.732;2023-08-20T10:13:04;12.87;;;8.50;;
72319;SDS011;60269;52.502;16.732;2023-08-20T10:16:37;11.07;;;8.90;;
72319;SDS011;60269;52.502;16.732;2023-08-20T10:20:09;13.13;;;9.20;;
72319;SDS011;60269;52.502;16.732;2023-08-20T10:23:49;10.53;;;7.77;;
72319;SDS011;60269;52.502;16.732;2023-08-20T10:27:25;12.02;;;9.80;;
72319;SDS011;60269;52.502;16.732;2023-08-20T10:31:11;15.93;;;14.15;;
72319;SDS011;60269;52.502;16.732;2023-08-20T10:34:50;14.80;;;13.32;;
72319;SDS011;60269;52.502;16.732;2023-08-20T10:38:24;14.90;;;13.60;;
72319;SDS011;60269;52.502;16.732;2023-08-20T10:49:44;11.30;;;10.20;;
72319;SDS011;60269;52.502;16.732;2023-08-20T10:53:22;11.00;;;8.43;;
72319;SDS011;60269;52.502;16.732;2023-08-20T10:56:55;15.27;;;14.05;;
72319;SDS011;60269;52.502;16.732;2023-08-20T11:00:32;16.47;;;15.13;;
72319;SDS011;60269;52.502;16.732;2023-08-20T11:04:04;16.45;;;14.85;;
72319;SDS011;60269;52.502;16.732;2023-08-20T11:07:39;14.35;;;13.02;;
72319;SDS011;60269;52.502;16.732;2023-08-20T11:11:11;12.27;;;8.38;;
72319;SDS011;60269;52.502;16.732;2023-08-20T11:14:43;9.83;;;7.30;;
72319;SDS011;60269;52.502;16.732;2023-08-20T11:18:15;10.80;;;7.60;;
72319;SDS011;60269;52.502;16.732;2023-08-20T11:21:47;14.82;;;12.88;;
72319;SDS011;60269;52.502;16.732;2023-08-20T11:25:20;11.43;;;10.30;;
72319;SDS011;60269;52.502;16.732;2023-08-20T11:28:52;11.10;;;8.00;;
72319;SDS011;60269;52.502;16.732;2023-08-20T11:32:24;9.55;;;7.35;;
72319;SDS011;60269;52.502;16.732;2023-08-20T11:35:56;13.57;;;12.33;;
72319;SDS011;60269;52.502;16.732;2023-08-20T11:39:28;10.93;;;9.82;;
72319;SDS011;60269;52.502;16.732;2023-08-20T11:43:01;12.43;;;11.18;;
72319;SDS011;60269;52.502;16.732;2023-08-20T11:46:33;10.45;;;8.15;;
72319;SDS011;60269;52.502;16.732;2023-08-20T11:50:14;10.37;;;7.83;;
72319;SDS011;60269;52.502;16.732;2023-08-20T11:53:46;11.63;;;7.82;;
72319;SDS011;60269;52.502;16.732;2023-08-20T11:57:18;9.40;;;7.78;;
72319;SDS011;60269;52.502;16.732;2023-08-20T12:00:50;9.37;;;7.60;;
72319;SDS011;60269;52.502;16.732;2023-08-20T12:04:23;9.70;;;8.05;;
72319;SDS011;60269;52.502;16.732;2023-08-20T12:07:59;10.38;;;7.60;;
72319;SDS011;60269;52.502;16.732;2023-08-20T12:11:33;8.87;;;7.30;;
72319;SDS011;60269;52.502;16.732;2023-08-20T12:15:05;9.35;;;7.20;;
72319;SDS011;60269;52.502;16.732;2023-08-20T12:18:37;9.13;;;6.93;;
72319;SDS011;60269;52.502;16.732;2023-08-20T12:22:09;11.18;;;8.10;;
72319;SDS011;60269;52.502;16.732;2023-08-20T12:25:41;10.87;;;8.07;;
72319;SDS011;60269;52.502;16.732;2023-08-20T12:29:14;8.70;;;7.40;;
72319;SDS011;60269;52.502;16.732;2023-08-20T12:32:46;8.90;;;7.40;;
72319;SDS011;60269;52.502;16.732;2023-08-20T12:36:18;11.23;;;7.60;;
72319;SDS011;60269;52.502;16.732;2023-08-20T12:39:51;10.60;;;7.75;;
72319;SDS011;60269;52.502;16.732;2023-08-20T12:43:22;11.25;;;7.60;;
72319;SDS011;60269;52.502;16.732;2023-08-20T12:46:54;9.90;;;6.77;;
72319;SDS011;60269;52.502;16.732;2023-08-20T12:50:26;9.95;;;7.18;;
72319;SDS011;60269;52.502;16.732;2023-08-20T12:53:58;9.63;;;7.00;;
72319;SDS011;60269;52.502;16.732;2023-08-20T12:57:33;10.45;;;7.47;;
72319;SDS011;60269;52.502;16.732;2023-08-20T13:01:08;10.10;;;7.00;;
72319;SDS011;60269;52.502;16.732;2023-08-20T13:04:40;10.98;;;8.18;;
72319;SDS011;60269;52.502;16.732;2023-08-20T13:08:15;9.88;;;8.15;;
72319;SDS011;60269;52.502;16.732;2023-08-20T13:11:47;9.70;;;7.83;;
72319;SDS011;60269;52.502;16.732;2023-08-20T13:15:20;12.38;;;8.32;;
72319;SDS011;60269;52.502;16.732;2023-08-20T13:18:53;10.40;;;8.55;;
72319;SDS011;60269;52.502;16.732;2023-08-20T13:22:25;12.00;;;7.20;;
72319;SDS011;60269;52.502;16.732;2023-08-20T13:25:57;12.10;;;8.00;;
72319;SDS011;60269;52.502;16.732;2023-08-20T13:29:30;10.18;;;8.20;;
72319;SDS011;60269;52.502;16.732;2023-08-20T13:33:02;9.68;;;8.05;;
72319;SDS011;60269;52.502;16.732;2023-08-20T13:36:35;11.67;;;8.97;;
72319;SDS011;60269;52.502;16.732;2023-08-20T13:40:09;9.23;;;7.90;;
72319;SDS011;60269;52.502;16.732;2023-08-20T13:43:42;9.95;;;7.40;;
72319;SDS011;60269;52.502;16.732;2023-08-20T13:47:14;14.07;;;7.50;;
72319;SDS011;60269;52.502;16.732;2023-08-20T13:50:46;9.95;;;7.32;;
72319;SDS011;60269;52.502;16.732;2023-08-20T13:54:19;11.57;;;8.25;;
72319;SDS011;60269;52.502;16.732;2023-08-20T13:57:51;10.73;;;7.00;;
72319;SDS011;60269;52.502;16.732;2023-08-20T14:01:23;10.25;;;7.55;;
72319;SDS011;60269;52.502;16.732;2023-08-20T14:04:55;9.90;;;7.25;;
72319;SDS011;60269;52.502;16.732;2023-08-20T14:08:27;9.50;;;7.63;;
72319;SDS011;60269;52.502;16.732;2023-08-20T14:11:59;10.17;;;7.07;;
72319;SDS011;60269;52.502;16.732;2023-08-20T14:15:31;8.98;;;7.47;;
72319;SDS011;60269;52.502;16.732;2023-08-20T14:19:03;10.65;;;7.00;;
72319;SDS011;60269;52.502;16.732;2023-08-20T14:22:35;10.43;;;7.40;;
72319;SDS011;60269;52.502;16.732;2023-08-20T14:26:08;9.07;;;5.63;;
72319;SDS011;60269;52.502;16.732;2023-08-20T14:29:40;8.63;;;5.93;;
72319;SDS011;60269;52.502;16.732;2023-08-20T14:33:13;13.60;;;6.10;;
72319;SDS011;60269;52.502;16.732;2023-08-20T14:36:45;8.38;;;5.38;;
72319;SDS011;60269;52.502;16.732;2023-08-20T14:40:17;10.10;;;6.40;;
72319;SDS011;60269;52.502;16.732;2023-08-20T14:43:49;8.20;;;6.03;;
72319;SDS011;60269;52.502;16.732;2023-08-20T14:47:22;10.37;;;6.83;;
72319;SDS011;60269;52.502;16.732;2023-08-20T14:50:54;9.18;;;6.57;;
72319;SDS011;60269;52.502;16.732;2023-08-20T14:54:26;8.73;;;6.57;;
72319;SDS011;60269;52.502;16.732;2023-08-20T14:57:58;11.20;;;7.53;;
72319;SDS011;60269;52.502;16.732;2023-08-20T15:01:30;10.13;;;7.68;;
72319;SDS011;60269;52.502;16.732;2023-08-20T15:05:03;10.30;;;7.65;;
72319;SDS011;60269;52.502;16.732;2023-08-20T15:08:35;9.80;;;8.30;;
72319;SDS011;60269;52.502;16.732;2023-08-20T15:12:07;10.73;;;7.45;;
72319;SDS011;60269;52.502;16.732;2023-08-20T15:15:40;10.65;;;8.30;;
72319;SDS011;60269;52.502;16.732;2023-08-20T15:19:11;13.13;;;9.30;;
72319;SDS011;60269;52.502;16.732;2023-08-20T15:22:44;11.50;;;8.53;;
72319;SDS011;60269;52.502;16.732;2023-08-20T15:26:16;13.38;;;9.18;;
72319;SDS011;60269;52.502;16.732;2023-08-20T15:29:48;12.77;;;8.70;;
72319;SDS011;60269;52.502;16.732;2023-08-20T15:33:22;11.60;;;7.67;;
72319;SDS011;60269;52.502;16.732;2023-08-20T15:36:54;10.85;;;7.90;;
72319;SDS011;60269;52.502;16.732;2023-08-20T15:40:26;11.35;;;8.70;;
72319;SDS011;60269;52.502;16.732;2023-08-20T15:43:59;11.77;;;8.67;;
72319;SDS011;60269;52.502;16.732;2023-08-20T15:47:30;10.65;;;8.35;;
72319;SDS011;60269;52.502;16.732;2023-08-20T15:51:03;12.32;;;8.65;;
72319;SDS011;60269;52.502;16.732;2023-08-20T15:54:35;11.52;;;7.97;;
72319;SDS011;60269;52.502;16.732;2023-08-20T15:58:08;11.53;;;8.67;;
72319;SDS011;60269;52.502;16.732;2023-08-20T16:01:40;12.27;;;8.75;;
72319;SDS011;60269;52.502;16.732;2023-08-20T16:05:13;11.02;;;8.68;;
72319;SDS011;60269;52.502;16.732;2023-08-20T16:08:45;12.27;;;8.77;;
72319;SDS011;60269;52.502;16.732;2023-08-20T16:12:17;12.02;;;8.88;;
72319;SDS011;60269;52.502;16.732;2023-08-20T16:15:49;10.90;;;8.77;;
72319;SDS011;60269;52.502;16.732;2023-08-20T16:19:22;12.63;;;9.77;;
72319;SDS011;60269;52.502;16.732;2023-08-20T16:22:54;14.27;;;10.70;;
72319;SDS011;60269;52.502;16.732;2023-08-20T16:26:27;12.07;;;9.57;;
72319;SDS011;60269;52.502;16.732;2023-08-20T16:29:58;13.20;;;10.25;;
72319;SDS011;60269;52.502;16.732;2023-08-20T16:33:31;16.30;;;11.07;;
72319;SDS011;60269;52.502;16.732;2023-08-20T16:37:03;14.95;;;10.43;;
72319;SDS011;60269;52.502;16.732;2023-08-20T16:40:35;14.20;;;10.85;;
72319;SDS011;60269;52.502;16.732;2023-08-20T16:44:07;13.37;;;9.67;;
72319;SDS011;60269;52.502;16.732;2023-08-20T16:47:39;15.85;;;10.48;;
72319;SDS011;60269;52.502;16.732;2023-08-20T16:51:11;15.93;;;11.07;;
72319;SDS011;60269;52.502;16.732;2023-08-20T16:54:46;13.80;;;10.30;;
72319;SDS011;60269;52.502;16.732;2023-08-20T16:58:22;14.82;;;10.27;;
72319;SDS011;60269;52.502;16.732;2023-08-20T17:01:55;16.13;;;10.45;;
72319;SDS011;60269;52.502;16.732;2023-08-20T17:05:27;18.23;;;10.65;;
72319;SDS011;60269;52.502;16.732;2023-08-20T17:08:59;17.63;;;11.63;;
72319;SDS011;60269;52.502;16.732;2023-08-20T17:12:31;16.10;;;11.05;;
72319;SDS011;60269;52.502;16.732;2023-08-20T17:16:04;19.30;;;10.50;;
72319;SDS011;60269;52.502;16.732;2023-08-20T17:19:37;15.57;;;11.30;;
72319;SDS011;60269;52.502;16.732;2023-08-20T17:23:09;15.38;;;10.23;;
72319;SDS011;60269;52.502;16.732;2023-08-20T17:26:41;14.82;;;10.20;;
72319;SDS011;60269;52.502;16.732;2023-08-20T17:30:14;16.73;;;10.40;;
72319;SDS011;60269;52.502;16.732;2023-08-20T17:33:47;14.53;;;9.07;;
72319;SDS011;60269;52.502;16.732;2023-08-20T17:37:19;16.70;;;9.65;;
72319;SDS011;60269;52.502;16.732;2023-08-20T17:40:53;16.80;;;9.77;;
72319;SDS011;60269;52.502;16.732;2023-08-20T17:44:26;14.30;;;9.37;;
72319;SDS011;60269;52.502;16.732;2023-08-20T17:47:57;25.48;;;10.00;;
72319;SDS011;60269;52.502;16.732;2023-08-20T17:51:30;15.77;;;8.90;;
72319;SDS011;60269;52.502;16.732;2023-08-20T17:55:02;16.45;;;9.07;;
72319;SDS011;60269;52.502;16.732;2023-08-20T17:58:35;15.13;;;8.53;;
72319;SDS011;60269;52.502;16.732;2023-08-20T18:02:07;14.40;;;9.20;;
72319;SDS011;60269;52.502;16.732;2023-08-20T18:05:39;17.27;;;9.90;;
72319;SDS011;60269;52.502;16.732;2023-08-20T18:09:15;14.87;;;9.17;;
72319;SDS011;60269;52.502;16.732;2023-08-20T18:12:48;13.77;;;9.13;;
72319;SDS011;60269;52.502;16.732;2023-08-20T18:16:19;18.38;;;10.05;;
72319;SDS011;60269;52.502;16.732;2023-08-20T18:19:52;15.52;;;9.30;;
72319;SDS011;60269;52.502;16.732;2023-08-20T18:23:25;16.87;;;9.00;;
72319;SDS011;60269;52.502;16.732;2023-08-20T18:26:58;13.80;;;8.60;;
72319;SDS011;60269;52.502;16.732;2023-08-20T18:30:32;15.40;;;9.70;;
72319;SDS011;60269;52.502;16.732;2023-08-20T18:34:06;16.58;;;9.57;;
72319;SDS011;60269;52.502;16.732;2023-08-20T18:37:39;15.33;;;10.13;;
72319;SDS011;60269;52.502;16.732;2023-08-20T18:41:11;16.37;;;10.13;;
72319;SDS011;60269;52.502;16.732;2023-08-20T18:44:47;15.60;;;9.40;;
72319;SDS011;60269;52.502;16.732;2023-08-20T18:48:19;17.83;;;10.10;;
72319;SDS011;60269;52.502;16.732;2023-08-20T18:51:51;13.00;;;9.17;;
72319;SDS011;60269;52.502;16.732;2023-08-20T18:55:24;16.53;;;9.83;;
72319;SDS011;60269;52.502;16.732;2023-08-20T18:58:55;15.25;;;9.90;;
72319;SDS011;60269;52.502;16.732;2023-08-20T19:02:28;15.63;;;10.68;;
72319;SDS011;60269;52.502;16.732;2023-08-20T19:06:00;15.03;;;10.83;;
72319;SDS011;60269;52.502;16.732;2023-08-20T19:09:32;16.17;;;10.73;;
72319;SDS011;60269;52.502;16.732;2023-08-20T19:13:04;17.48;;;11.27;;
72319;SDS011;60269;52.502;16.732;2023-08-20T19:16:36;18.42;;;10.10;;
72319;SDS011;60269;52.502;16.732;2023-08-20T19:20:10;17.10;;;11.57;;
72319;SDS011;60269;52.502;16.732;2023-08-20T19:23:44;18.33;;;11.07;;
72319;SDS011;60269;52.502;16.732;2023-08-20T19:27:18;19.13;;;11.90;;
72319;SDS011;60269;52.502;16.732;2023-08-20T19:30:51;17.52;;;11.45;;
72319;SDS011;60269;52.502;16.732;2023-08-20T19:34:27;18.13;;;12.37;;
72319;SDS011;60269;52.502;16.732;2023-08-20T19:38:00;19.07;;;11.47;;
72319;SDS011;60269;52.502;16.732;2023-08-20T19:41:33;21.20;;;12.38;;
72319;SDS011;60269;52.502;16.732;2023-08-20T19:45:05;20.33;;;12.15;;
72319;SDS011;60269;52.502;16.732;2023-08-20T19:48:37;19.23;;;12.17;;
72319;SDS011;60269;52.502;16.732;2023-08-20T19:52:10;18.17;;;11.83;;
72319;SDS011;60269;52.502;16.732;2023-08-20T19:55:42;20.15;;;12.18;;
72319;SDS011;60269;52.502;16.732;2023-08-20T19:59:14;17.70;;;11.70;;
72319;SDS011;60269;52.502;16.732;2023-08-20T20:02:46;18.77;;;11.63;;
72319;SDS011;60269;52.502;16.732;2023-08-20T20:06:19;20.03;;;11.97;;
72319;SDS011;60269;52.502;16.732;2023-08-20T20:09:51;20.40;;;12.32;;
72319;SDS011;60269;52.502;16.732;2023-08-20T20:13:24;19.88;;;11.75;;
72319;SDS011;60269;52.502;16.732;2023-08-20T20:16:56;21.03;;;12.50;;
72319;SDS011;60269;52.502;16.732;2023-08-20T20:20:28;18.70;;;12.03;;
72319;SDS011;60269;52.502;16.732;2023-08-20T20:24:00;18.63;;;11.13;;
72319;SDS011;60269;52.502;16.732;2023-08-20T20:27:32;19.77;;;11.70;;
72319;SDS011;60269;52.502;16.732;2023-08-20T20:31:09;22.03;;;12.00;;
72319;SDS011;60269;52.502;16.732;2023-08-20T20:34:42;21.33;;;12.50;;
72319;SDS011;60269;52.502;16.732;2023-08-20T20:38:14;22.90;;;12.38;;
72319;SDS011;60269;52.502;16.732;2023-08-20T20:41:47;21.88;;;12.40;;
72319;SDS011;60269;52.502;16.732;2023-08-20T20:45:19;20.77;;;12.20;;